Accueil
METAR-TAF:

METAR-TAF

Aéroports :

Aéroport de Milan-Linate

Milan, Italie

latitude: 45-26N, longitude: 009-17E, altitude: 107 m

Observation

Le bulletin a été fait il y a 4 heures et 43 minutes, à 11:50 UTC
Vent 2 kt de direction variable
Température 14°C
Humidité 72%
Pression 1017 hPa
Visibilité 10 km ou plus
Nuages épars à une hauteur de 3500 ft
Nuages épars à une hauteur de 8000 ft

METAR: LIML 281150Z VRB02KT 9999 SCT035 SCT080 14/09 Q1017 NOSIG

Heure: 17:33 (16:33 UTC)

Prévision

Le bulletin a été fait il y a 5 heures et 33 minutes, à 11:00 UTC
Prévision valable du 28 à 12 UTC au 29 à 12 UTC
Vent 4 kt de direction variable
Visibilité 10 km ou plus
Nuages épars à une hauteur de 4500 ft
Temporairement
du 29 à 01 UTC au 29 à 09 UTC
Visibilité: 4000 m
pluie faible,

TAF: LIML 281100Z 2812/2912 VRB04KT 9999 SCT045 TEMPO 2901/2909 4000 -RA

Observations et prévisions météorologiques de plus de 4000 aéroports (messages METAR et TAF).

Les stations disponibles sont représentées par des disques jaunes et rouges sur la carte.

Passer la souris dessus pour voir le nom de la station.

Cliquer dessus pour voir les observations et prévisions météorologiques.

Pour changer de carte: cliquez sur les boutons verts avec une croix noire pour zoomer, sur le bouton vert avec un tiret pour effectuer un zoom arrière, ou sur les flèches vertes pour les cartes adjacentes.


METAR-TAF: